Mozhga, Russia
Current Conditions -  °F | °C
As of 10:00 PM on Monday 20 Oct 2014 (Local Time) from UWKE Reporting Station
Scattered Clouds Scattered Clouds  
Wind Chill: 13°   Ceiling: Unl
Heat Index: 23°   Visibility: 6mi
Dew Point: 16°   Wind: 9mph
Humidity: 74%   Direction: 130°SE
Pressure: 29.71"   Gusts: NA
Location:  56.45°N, 52.19°E
Report Text: UWKE 201800Z 13004MPS 9999 SCT029 M05/M09 Q1006 NOSIG RMKQFE737/0983 21090070
Loading
Personal Weather Stations






























Interactive Weather Map
Tropical Storm Tracking
New forecast layout! Learn more

10-Day Weather Forecast

Advertisements
Track Severe Weather on mobile